Time;durP1;ratioP1;P1;durP2;ratioP2;P2;SDS_P1;SDS_P2;PMS_P1;PMS_P2;Temp;Humidity;BMP_temperature;BMP_pressure;BME280_temperature;BME280_humidity;BME280_pressure;Samples;Min_cycle;Max_cycle;Signal;HPM_P1;HPM_P2
2023/04/06 00:00:15;;;;;;;10.57;9.47;;;;;;;1.19;65.52;101229.19;5075112;28;20239;-70
2023/04/06 00:02:42;;;;;;;9.27;7.47;;;;;;;1.18;65.42;101240.56;5070400;28;20628;-69
2023/04/06 00:05:10;;;;;;;8.83;8.00;;;;;;;1.14;65.33;101231.00;5068558;28;20929;-68
2023/04/06 00:07:37;;;;;;;9.97;8.97;;;;;;;1.12;65.41;101232.78;5072122;28;20310;-70
2023/04/06 00:10:04;;;;;;;9.43;8.33;;;;;;;1.09;65.61;101227.56;5064901;28;20641;-69
2023/04/06 00:12:31;;;;;;;9.67;8.73;;;;;;;1.07;65.99;101228.53;5075965;28;20296;-71
2023/04/06 00:14:57;;;;;;;9.07;8.10;;;;;;;1.06;65.67;101221.53;5073910;28;20230;-68
2023/04/06 00:17:24;;;;;;;10.50;9.33;;;;;;;1.01;66.30;101225.09;5073984;28;20209;-70
2023/04/06 00:19:51;;;;;;;11.30;9.17;;;;;;;0.98;66.30;101219.88;5078360;28;20287;-69
2023/04/06 00:22:19;;;;;;;13.30;9.53;;;;;;;0.98;66.14;101224.25;5070492;28;20224;-69
2023/04/06 00:24:45;;;;;;;10.60;8.33;;;;;;;0.95;66.15;101211.19;5075091;28;20211;-70
2023/04/06 00:27:12;;;;;;;9.50;7.50;;;;;;;0.91;65.96;101218.22;5075981;28;20733;-68
2023/04/06 00:29:40;;;;;;;8.77;6.43;;;;;;;0.86;66.41;101216.59;5076870;28;20722;-67
2023/04/06 00:32:07;;;;;;;8.10;7.10;;;;;;;0.83;66.30;101214.88;5081611;28;20216;-69
2023/04/06 00:34:33;;;;;;;7.40;6.43;;;;;;;0.77;66.38;101208.84;5070989;28;20201;-68
2023/04/06 00:37:00;;;;;;;7.33;6.40;;;;;;;0.72;66.62;101211.50;5077696;28;20600;-70
2023/04/06 00:39:28;;;;;;;8.10;6.77;;;;;;;0.68;67.08;101202.84;5072024;28;20231;-69
2023/04/06 00:41:55;;;;;;;8.30;7.23;;;;;;;0.65;67.43;101209.88;5067130;28;20526;-69
2023/04/06 00:44:22;;;;;;;10.33;8.13;;;;;;;0.62;67.34;101208.16;5069234;28;20676;-67
2023/04/06 00:46:48;;;;;;;10.03;8.90;;;;;;;0.58;67.48;101202.97;5077015;28;20224;-69
2023/04/06 00:49:15;;;;;;;14.17;8.13;;;;;;;0.56;67.56;101204.75;5071114;28;20220;-70
2023/04/06 00:51:42;;;;;;;11.17;7.47;;;;;;;0.52;68.05;101201.34;5076399;28;20196;-68
2023/04/06 00:54:08;;;;;;;9.63;7.90;;;;;;;0.50;68.14;101191.75;5078827;28;20812;-68
2023/04/06 00:56:36;;;;;;;8.87;7.97;;;;;;;0.48;68.28;101197.00;5069515;28;20214;-70
2023/04/06 00:59:03;;;;;;;9.27;7.73;;;;;;;0.48;68.68;101201.38;5070704;28;20216;-70
2023/04/06 01:01:32;;;;;;;10.00;7.97;;;;;;;0.45;68.57;101196.19;5072708;28;20215;-70
2023/04/06 01:03:59;;;;;;;9.67;8.00;;;;;;;0.43;68.67;101193.56;5070753;28;20223;-71
2023/04/06 01:06:25;;;;;;;9.07;7.37;;;;;;;0.41;68.72;101195.34;5067492;28;20237;-70
2023/04/06 01:08:52;;;;;;;9.80;7.13;;;;;;;0.39;68.82;101186.63;5070783;28;20392;-69
2023/04/06 01:11:18;;;;;;;9.87;7.67;;;;;;;0.36;68.85;101189.28;5074078;28;20200;-71
2023/04/06 01:13:47;;;;;;;7.90;7.10;;;;;;;0.34;68.83;101183.22;5069887;28;20201;-67
2023/04/06 01:16:13;;;;;;;10.90;7.67;;;;;;;0.30;68.88;101179.78;5068582;28;20692;-70
2023/04/06 01:18:40;;;;;;;9.73;7.60;;;;;;;0.27;68.93;101178.94;5069204;28;20260;-69
2023/04/06 01:21:08;;;;;;;10.30;8.03;;;;;;;0.26;69.04;101179.84;5073234;28;20708;-69
2023/04/06 01:23:36;;;;;;;10.87;7.77;;;;;;;0.23;69.05;101172.00;5074419;28;20204;-71
2023/04/06 01:26:03;;;;;;;8.40;7.33;;;;;;;0.19;69.73;101176.41;5075412;28;20232;-69
2023/04/06 01:28:29;;;;;;;8.83;7.50;;;;;;;0.19;69.31;101183.41;5075550;28;20220;-70
2023/04/06 01:30:56;;;;;;;8.20;7.10;;;;;;;0.16;69.55;101178.22;5077127;28;20236;-69
2023/04/06 01:33:22;;;;;;;8.70;7.80;;;;;;;0.13;69.62;101173.03;5074495;28;20205;-68
2023/04/06 01:35:49;;;;;;;8.00;7.20;;;;;;;0.10;69.86;101173.06;5077220;28;20204;-69
2023/04/06 01:38:15;;;;;;;9.13;8.03;;;;;;;0.09;69.67;101176.56;5073262;28;20204;-70
2023/04/06 01:40:43;;;;;;;11.93;9.10;;;;;;;0.06;69.83;101172.22;5070459;28;20258;-67
2023/04/06 01:43:10;;;;;;;12.60;9.40;;;;;;;0.04;70.25;101171.38;5082250;28;20239;-70
2023/04/06 01:45:36;;;;;;;10.50;9.40;;;;;;;0.02;70.06;101172.25;5081590;28;20286;-70
2023/04/06 01:48:03;;;;;;;10.20;9.20;;;;;;;-0.02;70.45;101169.72;5076205;28;20196;-69
2023/04/06 01:50:30;;;;;;;11.77;8.73;;;;;;;-0.03;70.49;101169.72;5079573;28;20220;-68
2023/04/06 01:52:56;;;;;;;12.27;9.37;;;;;;;-0.06;70.52;101165.38;5079686;28;20211;-71
2023/04/06 01:55:23;;;;;;;9.63;8.27;;;;;;;-0.08;70.54;101169.78;5072608;28;20730;-70
2023/04/06 01:57:51;;;;;;;10.20;8.80;;;;;;;-0.11;70.52;101175.03;5073496;28;20204;-69
2023/04/06 02:00:18;;;;;;;10.27;8.97;;;;;;;-0.13;70.81;101178.56;5083845;28;20246;-70
2023/04/06 02:02:45;;;;;;;11.40;8.83;;;;;;;-0.17;71.05;101182.94;5082231;28;20479;-70
2023/04/06 02:05:11;;;;;;;10.07;8.70;;;;;;;-0.19;71.09;101171.66;5082081;28;20204;-69
2023/04/06 02:07:38;;;;;;;10.33;8.43;;;;;;;-0.22;71.10;101169.06;5077833;28;20219;-70
2023/04/06 02:10:11;;;;;;;9.50;8.60;;;;;;;-0.23;71.32;101169.94;5087340;28;20227;-68
2023/04/06 02:12:38;;;;;;;9.37;8.47;;;;;;;-0.26;71.26;101166.50;5083286;28;20200;-69
2023/04/06 02:15:07;;;;;;;9.87;8.30;;;;;;;-0.29;71.54;101167.38;5079361;28;20317;-67
2023/04/06 02:17:33;;;;;;;10.93;8.63;;;;;;;-0.31;71.64;101165.66;5084092;28;20198;-69
2023/04/06 02:20:00;;;;;;;9.80;8.77;;;;;;;-0.33;71.65;101170.03;5080296;28;20324;-71
2023/04/06 02:22:26;;;;;;;11.27;9.00;;;;;;;-0.36;71.95;101168.34;5075500;28;20227;-67
2023/04/06 02:24:53;;;;;;;10.07;7.90;;;;;;;-0.38;71.82;101176.22;5079541;28;20215;-73
2023/04/06 02:27:19;;;;;;;10.87;8.60;;;;;;;-0.40;72.46;101164.03;5076854;28;20224;-68
2023/04/06 02:29:46;;;;;;;10.30;8.60;;;;;;;-0.42;72.09;101168.41;5083144;28;20220;-67
2023/04/06 02:32:14;;;;;;;9.83;7.93;;;;;;;-0.45;72.30;101164.06;5083475;28;20192;-71
2023/04/06 02:34:40;;;;;;;12.53;8.83;;;;;;;-0.47;72.26;101163.22;5080206;28;20704;-69
2023/04/06 02:37:07;;;;;;;10.67;8.33;;;;;;;-0.48;72.64;101152.75;5075549;28;20196;-67
2023/04/06 02:39:33;;;;;;;9.00;8.10;;;;;;;-0.49;72.86;101166.72;5081483;28;20319;-69
2023/04/06 02:42:00;;;;;;;11.40;9.13;;;;;;;-0.52;72.50;101162.38;5074066;28;20697;-69
2023/04/06 02:44:26;;;;;;;8.97;7.97;;;;;;;-0.55;72.69;101156.34;5071762;28;20207;-67
2023/04/06 02:46:53;;;;;;;9.57;7.90;;;;;;;-0.58;72.69;101162.47;5078722;28;20724;-69
2023/04/06 02:49:21;;;;;;;10.13;8.83;;;;;;;-0.60;72.97;101150.28;5080024;28;20232;-69
2023/04/06 02:51:48;;;;;;;11.37;8.77;;;;;;;-0.63;72.66;101158.13;5082897;28;20200;-68
2023/04/06 02:54:14;;;;;;;12.43;8.93;;;;;;;-0.64;73.11;101153.78;5080877;28;20300;-69
2023/04/06 02:56:41;;;;;;;11.73;8.73;;;;;;;-0.66;72.81;101152.94;5083273;28;20686;-70
2023/04/06 02:59:07;;;;;;;10.73;8.50;;;;;;;-0.71;73.37;101151.22;5082489;28;20217;-68
2023/04/06 03:01:34;;;;;;;11.83;8.90;;;;;;;-0.74;72.86;101151.28;5077483;28;20200;-69
2023/04/06 03:04:00;;;;;;;11.17;8.50;;;;;;;-0.77;73.30;101146.06;5076036;28;20953;-69
2023/04/06 03:06:28;;;;;;;13.10;10.13;;;;;;;-0.82;73.46;101150.47;5076901;28;20231;-67
2023/04/06 03:08:55;;;;;;;10.53;8.60;;;;;;;-0.90;73.15;101152.28;5073600;28;20879;-68
2023/04/06 03:11:21;;;;;;;9.43;8.27;;;;;;;-0.95;73.67;101150.59;5082620;28;20203;-69
2023/04/06 03:13:48;;;;;;;10.07;7.97;;;;;;;-0.99;73.55;101149.75;5077297;28;20522;-68
2023/04/06 03:16:14;;;;;;;10.43;8.20;;;;;;;-1.03;73.74;101145.41;5081497;28;20445;-69
2023/04/06 03:18:41;;;;;;;11.60;8.07;;;;;;;-1.05;74.26;101134.97;5079792;28;20596;-71
2023/04/06 03:21:07;;;;;;;9.83;7.57;;;;;;;-1.06;74.67;101148.91;5080135;28;20205;-67
2023/04/06 03:23:35;;;;;;;9.17;7.37;;;;;;;-1.08;74.91;101149.84;5075008;28;20197;-69
2023/04/06 03:26:02;;;;;;;9.80;6.90;;;;;;;-1.09;75.20;101146.34;5082194;28;20201;-69
2023/04/06 03:28:29;;;;;;;9.30;7.40;;;;;;;-1.09;75.31;101142.88;5071279;28;20256;-68
2023/04/06 03:30:55;;;;;;;8.70;7.33;;;;;;;-1.10;75.18;101149.84;5076493;28;20204;-68
2023/04/06 03:33:22;;;;;;;10.33;6.73;;;;;;;-1.10;75.85;101146.34;5076808;28;20207;-70
2023/04/06 03:35:48;;;;;;;10.73;7.77;;;;;;;-1.11;75.47;101140.25;5078620;28;20201;-69
2023/04/06 03:38:15;;;;;;;8.60;7.00;;;;;;;-1.13;75.89;101142.03;5077174;28;20203;-69
2023/04/06 03:40:43;;;;;;;7.87;6.90;;;;;;;-1.15;76.22;101146.38;5080075;28;20228;-70
2023/04/06 03:43:10;;;;;;;7.93;6.50;;;;;;;-1.18;76.27;101150.75;5075923;28;20277;-68
2023/04/06 03:45:36;;;;;;;6.97;5.80;;;;;;;-1.21;76.39;101141.19;5080345;28;20560;-70
2023/04/06 03:48:03;;;;;;;8.20;6.80;;;;;;;-1.24;76.31;101143.81;5077204;28;20238;-68
2023/04/06 03:50:29;;;;;;;7.93;6.20;;;;;;;-1.26;76.77;101149.97;5076639;28;20221;-69
2023/04/06 03:52:56;;;;;;;9.50;6.13;;;;;;;-1.28;76.64;101144.75;5079273;28;20295;-68
2023/04/06 03:55:22;;;;;;;10.03;7.70;;;;;;;-1.29;76.96;101147.38;5079361;28;20649;-70
2023/04/06 03:57:50;;;;;;;8.97;7.17;;;;;;;-1.31;76.74;101144.75;5077488;28;20208;-70
2023/04/06 04:00:17;;;;;;;10.03;7.03;;;;;;;-1.31;77.15;101141.28;5081192;28;20229;-69
2023/04/06 04:02:43;;;;;;;12.87;7.77;;;;;;;-1.31;77.04;101146.50;5082922;28;20196;-69
2023/04/06 04:05:10;;;;;;;10.17;8.03;;;;;;;-1.34;77.30;101147.41;5078274;28;20573;-67
2023/04/06 04:07:37;;;;;;;10.30;8.13;;;;;;;-1.34;77.61;101141.31;5077968;28;20447;-68
2023/04/06 04:10:04;;;;;;;11.10;8.13;;;;;;;-1.36;77.44;101154.38;5081896;28;20236;-69
2023/04/06 04:12:30;;;;;;;9.63;7.77;;;;;;;-1.37;77.63;101149.16;5080373;28;20195;-68
2023/04/06 04:14:58;;;;;;;10.63;8.07;;;;;;;-1.39;77.69;101154.38;5081268;28;20205;-70
2023/04/06 04:17:25;;;;;;;9.20;7.67;;;;;;;-1.41;77.70;101157.00;5075170;28;20662;-66
2023/04/06 04:19:52;;;;;;;11.90;9.00;;;;;;;-1.43;77.56;101150.91;5080408;28;20234;-68
2023/04/06 04:22:18;;;;;;;10.50;8.77;;;;;;;-1.43;77.69;101157.88;5080012;28;20209;-68
2023/04/06 04:24:45;;;;;;;10.57;8.43;;;;;;;-1.44;77.88;101154.44;5076478;28;20299;-68
2023/04/06 04:27:11;;;;;;;10.90;8.63;;;;;;;-1.45;78.18;101154.44;5079000;28;20598;-65
2023/04/06 04:29:38;;;;;;;15.53;9.03;;;;;;;-1.46;78.20;101152.72;5077179;28;20779;-68
2023/04/06 04:32:06;;;;;;;12.00;9.13;;;;;;;-1.46;78.18;101152.72;5079880;28;20291;-69
2023/04/06 04:34:32;;;;;;;10.90;8.60;;;;;;;-1.49;78.15;101148.38;5078345;28;20200;-68
2023/04/06 04:36:59;;;;;;;14.27;8.33;;;;;;;-1.50;78.33;101151.84;5074602;28;20291;-67
2023/04/06 04:39:25;;;;;;;11.53;9.20;;;;;;;-1.51;78.58;101150.13;5073692;28;20221;-68
2023/04/06 04:41:53;;;;;;;10.20;8.47;;;;;;;-1.51;78.56;101149.25;5082508;28;20566;-69
2023/04/06 04:44:20;;;;;;;10.60;8.17;;;;;;;-1.53;78.36;101151.88;5075944;28;20211;-68
2023/04/06 04:46:46;;;;;;;10.77;8.20;;;;;;;-1.54;78.87;101157.09;5077590;28;20225;-69
2023/04/06 04:49:14;;;;;;;11.30;8.63;;;;;;;-1.55;78.81;101152.75;5072329;28;20711;-70
2023/04/06 04:51:41;;;;;;;13.37;9.40;;;;;;;-1.56;79.05;101157.09;5078985;28;20250;-65
2023/04/06 04:54:07;;;;;;;11.47;9.23;;;;;;;-1.58;78.80;101153.63;5072641;28;20739;-68
2023/04/06 04:56:34;;;;;;;12.43;8.67;;;;;;;-1.61;78.82;101150.19;5078059;28;20704;-70
2023/04/06 04:59:01;;;;;;;13.30;8.77;;;;;;;-1.66;78.71;101165.88;5081887;28;20220;-69
2023/04/06 05:01:27;;;;;;;11.53;9.10;;;;;;;-1.70;78.53;101163.28;5077140;28;20197;-68
2023/04/06 05:03:54;;;;;;;13.53;8.70;;;;;;;-1.74;79.40;101149.38;5074728;28;20204;-69
2023/04/06 05:06:21;;;;;;;14.00;8.83;;;;;;;-1.74;79.14;101157.22;5083084;28;20231;-70
2023/04/06 05:08:48;;;;;;;10.53;8.90;;;;;;;-1.76;79.41;101149.38;5078497;28;20224;-68
2023/04/06 05:11:14;;;;;;;12.17;7.70;;;;;;;-1.75;79.90;101151.13;5077157;28;20708;-69
2023/04/06 05:13:41;;;;;;;11.73;8.77;;;;;;;-1.75;80.00;101155.47;5078965;28;20693;-69
2023/04/06 05:16:08;;;;;;;9.73;8.03;;;;;;;-1.74;80.37;101146.75;5073360;28;20200;-68
2023/04/06 05:18:34;;;;;;;11.93;8.60;;;;;;;-1.72;80.58;101154.59;5078500;28;20212;-67
2023/04/06 05:21:01;;;;;;;12.33;9.23;;;;;;;-1.69;80.69;101149.34;5075340;28;20207;-68
2023/04/06 05:23:29;;;;;;;12.67;9.20;;;;;;;-1.66;81.07;101152.81;5081352;28;20220;-69
2023/04/06 05:25:56;;;;;;;12.03;8.73;;;;;;;-1.64;81.25;101151.06;5079015;28;20393;-68
2023/04/06 05:28:23;;;;;;;10.77;8.90;;;;;;;-1.62;81.42;101151.94;5076086;28;20766;-69
2023/04/06 05:30:49;;;;;;;13.20;10.00;;;;;;;-1.58;81.25;101153.63;5084575;28;20206;-69
2023/04/06 05:33:16;;;;;;;11.17;9.00;;;;;;;-1.54;81.56;101155.34;5073082;28;20631;-68
2023/04/06 05:35:42;;;;;;;11.87;9.13;;;;;;;-1.48;81.81;101154.47;5072938;28;20216;-68
2023/04/06 05:38:10;;;;;;;14.27;9.20;;;;;;;-1.42;82.55;101154.41;5072136;28;20594;-68
2023/04/06 05:40:40;;;;;;;14.73;9.33;;;;;;;-1.35;82.58;101152.63;5075258;28;20265;-70
2023/04/06 05:43:07;;;;;;;12.37;8.40;;;;;;;-1.26;82.81;101155.19;5074833;28;20253;-70
2023/04/06 05:45:34;;;;;;;13.50;9.87;;;;;;;-1.18;83.05;101154.25;5076458;28;20270;-70
2023/04/06 05:48:01;;;;;;;13.00;8.87;;;;;;;-1.11;83.31;101153.34;5076374;28;20240;-69
2023/04/06 05:50:28;;;;;;;10.90;8.87;;;;;;;-1.03;83.30;101142.78;5071561;28;20598;-70
2023/04/06 05:52:54;;;;;;;17.77;9.30;;;;;;;-0.92;83.58;101150.56;5079784;28;20413;-67
2023/04/06 05:55:21;;;;;;;10.73;7.93;;;;;;;-0.83;83.28;101153.97;5073332;28;20216;-70
2023/04/06 05:57:49;;;;;;;11.13;8.33;;;;;;;-0.74;83.73;101151.28;5073909;28;20602;-72
2023/04/06 06:00:16;;;;;;;9.77;7.97;;;;;;;-0.62;83.64;101149.41;5072142;28;20331;-68
2023/04/06 06:02:43;;;;;;;9.57;7.47;;;;;;;-0.50;84.08;101149.28;5077609;28;20209;-70
2023/04/06 06:05:09;;;;;;;8.90;8.00;;;;;;;-0.36;84.35;101153.47;5077083;28;20204;-70
2023/04/06 06:07:36;;;;;;;11.43;8.17;;;;;;;-0.19;84.53;101144.59;5067443;28;20224;-70
2023/04/06 06:10:03;;;;;;;11.93;8.43;;;;;;;-0.06;83.83;101147.06;5075859;28;20500;-69
2023/04/06 06:12:30;;;;;;;12.63;9.10;;;;;;;0.06;83.47;101137.31;5068111;28;20216;-67
2023/04/06 06:14:58;;;;;;;10.20;8.20;;;;;;;0.20;83.44;101138.00;5071368;28;20205;-69
2023/04/06 06:17:24;;;;;;;9.27;7.43;;;;;;;0.32;82.89;101132.59;5067408;28;20295;-70
2023/04/06 06:19:51;;;;;;;10.63;8.37;;;;;;;0.44;82.59;101135.03;5066784;28;20263;-69
2023/04/06 06:22:17;;;;;;;11.07;7.97;;;;;;;0.56;82.21;101137.47;5072449;28;20209;-69
2023/04/06 06:24:44;;;;;;;13.43;7.83;;;;;;;0.69;81.79;101133.81;5074241;28;20197;-70
2023/04/06 06:27:11;;;;;;;16.00;9.07;;;;;;;0.85;81.62;101136.19;5075467;28;20287;-70
2023/04/06 06:29:37;;;;;;;17.77;9.63;;;;;;;1.00;81.62;101135.94;5068626;28;20229;-70
2023/04/06 06:32:06;;;;;;;12.53;9.60;;;;;;;1.16;81.49;101145.28;5071677;28;20387;-69
2023/04/06 06:34:32;;;;;;;13.00;8.73;;;;;;;1.32;81.42;101138.88;5071285;28;20254;-67
2023/04/06 06:36:59;;;;;;;13.83;8.70;;;;;;;1.47;80.70;101140.34;5075023;28;20750;-70
2023/04/06 06:39:26;;;;;;;9.73;8.47;;;;;;;1.61;80.24;101143.56;5069112;28;20541;-70
2023/04/06 06:41:54;;;;;;;9.60;7.50;;;;;;;1.78;79.64;101143.28;5072448;28;20205;-70
2023/04/06 06:44:21;;;;;;;9.33;7.80;;;;;;;1.94;78.86;101134.19;5072951;28;20661;-69
2023/04/06 06:46:47;;;;;;;15.50;7.57;;;;;;;2.13;77.64;101139.09;5081235;28;20279;-69
2023/04/06 06:49:15;;;;;;;9.70;8.17;;;;;;;2.31;76.57;101143.94;5075693;28;20614;-70
2023/04/06 06:51:42;;;;;;;11.33;7.30;;;;;;;2.49;75.79;101148.81;5082305;28;20204;-69
2023/04/06 06:54:08;;;;;;;10.77;7.23;;;;;;;2.67;75.12;101137.00;5081433;28;20218;-70
2023/04/06 06:56:37;;;;;;;13.30;7.30;;;;;;;2.86;73.60;101138.31;5081337;28;20212;-70
2023/04/06 06:59:04;;;;;;;7.90;5.80;;;;;;;3.03;71.96;101148.41;5081129;28;20217;-68
2023/04/06 07:01:33;;;;;;;9.27;6.67;;;;;;;3.18;70.18;101137.50;5082956;28;20204;-71
2023/04/06 07:03:59;;;;;;;7.90;6.23;;;;;;;3.38;68.77;101137.84;5078158;28;20196;-67
2023/04/06 07:06:27;;;;;;;9.73;6.90;;;;;;;3.54;67.74;101140.09;5081088;28;20536;-67
2023/04/06 07:08:54;;;;;;;10.63;6.60;;;;;;;3.70;66.16;101130.84;5073628;28;20231;-68
2023/04/06 07:11:20;;;;;;;7.07;5.73;;;;;;;3.87;65.28;101133.03;5081014;28;20212;-68
2023/04/06 07:13:47;;;;;;;6.03;5.13;;;;;;;4.02;63.85;101127.31;5082120;28;20711;-68
2023/04/06 07:16:13;;;;;;;6.37;5.67;;;;;;;4.18;63.03;101121.56;5078280;28;20733;-68
2023/04/06 07:18:40;;;;;;;7.60;5.77;;;;;;;4.36;61.93;101121.91;5083728;28;20216;-68
2023/04/06 07:21:07;;;;;;;7.37;6.30;;;;;;;4.53;60.48;101123.13;5078080;28;20270;-69
2023/04/06 07:23:35;;;;;;;6.60;5.93;;;;;;;4.73;59.97;101127.78;5082883;28;20193;-69
2023/04/06 07:26:01;;;;;;;7.47;5.30;;;;;;;4.89;58.82;101126.38;5080191;28;20300;-68
2023/04/06 07:28:28;;;;;;;6.23;5.20;;;;;;;5.08;57.92;101124.00;5076681;28;20232;-69
2023/04/06 07:30:55;;;;;;;8.07;5.93;;;;;;;5.24;56.81;101127.84;5086674;28;20201;-67
2023/04/06 07:33:21;;;;;;;6.23;5.50;;;;;;;5.41;55.50;101121.97;5081574;28;20686;-69
2023/04/06 07:35:48;;;;;;;6.10;5.10;;;;;;;5.58;55.26;101119.63;5077268;28;20247;-68
2023/04/06 07:38:14;;;;;;;6.23;5.50;;;;;;;5.77;54.27;101118.97;5075290;28;20680;-69
2023/04/06 07:40:42;;;;;;;5.93;4.73;;;;;;;5.94;52.91;101121.88;5080144;28;20655;-69
2023/04/06 07:43:09;;;;;;;8.47;4.73;;;;;;;6.12;53.01;101126.50;5077600;28;20295;-68
2023/04/06 07:45:36;;;;;;;6.00;5.03;;;;;;;6.31;52.74;101123.16;5080980;28;20569;-69
2023/04/06 07:48:02;;;;;;;5.67;5.00;;;;;;;6.46;51.10;101117.25;5081918;28;21442;-72
2023/04/06 07:50:29;;;;;;;5.63;4.97;;;;;;;6.64;50.76;101124.47;5078440;28;20247;-69
2023/04/06 07:52:56;;;;;;;7.70;5.30;;;;;;;6.79;49.86;101115.09;5082152;28;20215;-68
2023/04/06 07:55:22;;;;;;;5.93;5.13;;;;;;;6.91;49.19;101120.75;5074155;28;20207;-68
2023/04/06 07:57:50;;;;;;;7.17;5.87;;;;;;;7.05;48.22;101117.53;5077317;28;20280;-69
2023/04/06 08:00:17;;;;;;;7.47;5.50;;;;;;;7.18;47.54;101110.78;5079472;28;20312;-69
2023/04/06 08:02:44;;;;;;;6.17;5.60;;;;;;;7.31;47.24;101114.66;5078566;28;20204;-69
2023/04/06 08:05:10;;;;;;;6.40;5.20;;;;;;;7.45;48.14;101108.75;5083838;28;20222;-68
2023/04/06 08:07:37;;;;;;;6.00;5.07;;;;;;;7.57;47.40;101094.97;5078044;28;20303;-68
2023/04/06 08:10:04;;;;;;;7.23;5.33;;;;;;;7.76;47.26;101110.06;5080352;28;20227;-68
2023/04/06 08:12:34;;;;;;;6.17;4.73;;;;;;;7.87;45.75;101103.38;5083489;28;20214;-68
2023/04/06 08:15:03;;;;;;;7.50;5.50;;;;;;;7.99;46.44;101105.47;5083427;28;20200;-68
2023/04/06 08:17:30;;;;;;;6.73;5.30;;;;;;;8.15;45.99;101102.97;5081655;28;20216;-68
2023/04/06 08:19:57;;;;;;;6.80;5.70;;;;;;;8.30;45.39;101101.38;5080861;28;20319;-68
2023/04/06 08:22:24;;;;;;;6.70;5.80;;;;;;;8.41;44.24;101101.78;5075495;28;20211;-70
2023/04/06 08:24:51;;;;;;;5.73;5.20;;;;;;;8.51;44.99;101091.59;5077865;28;20219;-71
2023/04/06 08:27:18;;;;;;;6.33;5.50;;;;;;;8.65;44.69;101091.78;5081066;28;20793;-67
2023/04/06 08:29:44;;;;;;;6.63;5.30;;;;;;;8.81;44.66;101102.50;5079924;28;20232;-69
2023/04/06 08:32:12;;;;;;;6.47;4.97;;;;;;;8.93;43.83;101089.53;5069830;28;20230;-71
2023/04/06 08:34:39;;;;;;;6.03;5.37;;;;;;;9.06;44.20;101087.09;5078090;28;20219;-70
2023/04/06 08:37:05;;;;;;;7.30;5.67;;;;;;;9.20;44.45;101095.22;5076012;28;20212;-69
2023/04/06 08:39:33;;;;;;;6.10;5.27;;;;;;;9.36;44.27;101088.19;5068073;28;20224;-69
2023/04/06 08:42:02;;;;;;;7.27;5.77;;;;;;;9.57;44.30;101085.38;5075590;28;20639;-70
2023/04/06 08:44:29;;;;;;;6.17;5.63;;;;;;;9.72;43.44;101093.41;5068332;28;20215;-69
2023/04/06 08:46:56;;;;;;;6.70;5.43;;;;;;;9.88;42.88;101092.56;5068048;28;20281;-69
2023/04/06 08:49:24;;;;;;;6.60;5.13;;;;;;;10.02;41.29;101087.41;5073551;28;20241;-69
2023/04/06 08:51:51;;;;;;;6.20;5.60;;;;;;;10.10;41.26;101085.16;5074264;28;20231;-69
2023/04/06 08:54:18;;;;;;;7.63;5.60;;;;;;;10.23;40.91;101085.38;5079375;28;20209;-70
2023/04/06 08:56:45;;;;;;;5.90;5.30;;;;;;;10.32;39.92;101085.75;5077842;28;20201;-70
2023/04/06 08:59:12;;;;;;;5.83;5.07;;;;;;;10.43;40.14;101083.34;5075824;28;20228;-68
2023/04/06 09:01:45;;;;;;;5.43;4.93;;;;;;;10.56;40.14;101082.66;5079463;28;20214;-69
2023/04/06 09:04:12;;;;;;;6.73;5.13;;;;;;;10.69;39.83;101083.69;5080147;28;20201;-70
2023/04/06 09:06:40;;;;;;;7.33;5.60;;;;;;;10.80;40.11;101083.91;5076678;28;20217;-69
2023/04/06 09:09:07;;;;;;;5.77;4.87;;;;;;;10.92;39.21;101080.56;5065943;28;20703;-69
2023/04/06 09:11:45;;;;;;;7.87;5.53;;;;;;;10.99;39.21;101081.06;5081068;28;20209;-69
2023/04/06 09:14:12;;;;;;;5.73;5.10;;;;;;;11.11;39.37;101085.66;5074835;28;20573;-70
2023/04/06 09:16:42;;;;;;;5.30;4.80;;;;;;;11.26;38.84;101089.25;5075520;28;20239;-70
2023/04/06 09:19:09;;;;;;;8.20;5.03;;;;;;;11.35;38.50;101081.56;5072022;28;20331;-69
2023/04/06 09:21:36;;;;;;;7.40;5.20;;;;;;;11.44;37.79;101082.81;5080227;28;20205;-69
2023/04/06 09:24:05;;;;;;;6.87;5.83;;;;;;;11.51;37.49;101083.28;5080054;28;20204;-72
2023/04/06 09:26:33;;;;;;;7.33;5.53;;;;;;;11.59;37.96;101084.56;5078930;28;20214;-70
2023/04/06 09:29:01;;;;;;;7.27;5.47;;;;;;;11.67;37.02;101074.25;5073158;28;20231;-69
2023/04/06 09:31:29;;;;;;;6.13;5.10;;;;;;;11.71;36.52;101074.94;5081584;28;20298;-69
2023/04/06 09:33:57;;;;;;;6.30;5.27;;;;;;;11.74;36.36;101075.63;5070874;28;20203;-69
2023/04/06 09:36:31;;;;;;;7.43;5.97;;;;;;;11.80;36.46;101075.28;5071413;28;20792;-69
2023/04/06 09:38:59;;;;;;;5.90;5.30;;;;;;;11.87;36.30;101062.41;5079576;28;20231;-69
2023/04/06 09:41:30;;;;;;;8.20;5.37;;;;;;;11.93;36.60;101078.03;5080342;28;20207;-70
2023/04/06 09:44:04;;;;;;;6.00;5.40;;;;;;;12.00;36.16;101067.84;5079963;28;20225;-70
2023/04/06 09:46:33;;;;;;;8.33;5.20;;;;;;;12.03;35.54;101070.31;5079492;28;20199;-69
2023/04/06 09:49:01;;;;;;;5.87;5.13;;;;;;;12.02;35.16;101069.44;5081704;28;20241;-68
2023/04/06 09:51:31;;;;;;;5.70;4.80;;;;;;;12.05;35.53;101055.91;5077942;28;20217;-70
2023/04/06 09:54:01;;;;;;;5.80;5.27;;;;;;;12.11;35.44;101057.34;5079144;28;20211;-69
2023/04/06 09:56:32;;;;;;;7.57;5.20;;;;;;;12.15;35.37;101053.53;5072177;28;20228;-71
2023/04/06 09:59:06;;;;;;;7.07;5.83;;;;;;;12.26;35.31;101051.03;5070264;28;20715;-69
2023/04/06 10:01:36;;;;;;;7.73;6.00;;;;;;;12.36;34.76;101054.81;5076060;28;20197;-69
2023/04/06 10:04:14;;;;;;;5.83;4.53;;;;;;;12.44;34.38;101057.84;5078226;28;20212;-69
2023/04/06 10:06:40;;;;;;;8.23;5.40;;;;;;;12.47;33.88;101055.00;5074676;28;20209;-69
2023/04/06 10:09:09;;;;;;;7.00;5.67;;;;;;;12.51;33.92;101055.66;5082068;28;20235;-69
2023/04/06 10:11:37;;;;;;;6.47;4.87;;;;;;;12.54;33.39;101043.91;5077798;28;20211;-70
2023/04/06 10:14:04;;;;;;;6.40;5.67;;;;;;;12.54;33.65;101041.25;5078055;28;20226;-70
2023/04/06 10:16:31;;;;;;;9.10;6.13;;;;;;;12.59;34.04;101047.13;5075352;28;20699;-70
2023/04/06 10:19:02;;;;;;;6.13;5.10;;;;;;;12.64;34.58;101045.88;5080292;28;20224;-69
2023/04/06 10:21:31;;;;;;;6.63;5.63;;;;;;;12.71;33.75;101043.66;5078825;28;20291;-70
2023/04/06 10:24:00;;;;;;;5.70;4.97;;;;;;;12.75;33.87;101050.50;5083206;28;20207;-71
2023/04/06 10:26:27;;;;;;;8.43;5.63;;;;;;;12.81;34.48;101048.28;5084638;28;20646;-69
2023/04/06 10:28:55;;;;;;;7.27;5.83;;;;;;;12.92;34.39;101049.38;5085476;28;20254;-69
2023/04/06 10:31:26;;;;;;;5.93;5.20;;;;;;;13.01;33.38;101038.94;5083208;28;20208;-70
2023/04/06 10:33:57;;;;;;;6.40;5.33;;;;;;;13.07;33.34;101041.22;5086675;28;20753;-70
2023/04/06 10:36:26;;;;;;;7.43;5.50;;;;;;;13.10;33.34;101045.47;5076890;28;20679;-70
2023/04/06 10:38:56;;;;;;;8.40;6.07;;;;;;;13.15;32.37;101044.25;5070417;28;20634;-70
2023/04/06 10:41:23;;;;;;;7.20;5.40;;;;;;;13.16;32.37;101037.06;5078286;28;20211;-69
2023/04/06 10:43:57;;;;;;;6.63;5.90;;;;;;;13.15;32.52;101030.88;5079680;28;20215;-69
2023/04/06 10:46:26;;;;;;;6.17;5.40;;;;;;;13.15;32.22;101046.06;5080984;28;20547;-69
2023/04/06 10:48:52;;;;;;;8.57;6.50;;;;;;;13.10;33.13;101038.31;5082478;28;20228;-69
2023/04/06 10:51:20;;;;;;;9.33;6.53;;;;;;;13.14;32.38;101041.63;5074614;28;20208;-70
2023/04/06 10:53:48;;;;;;;6.73;6.13;;;;;;;13.10;32.57;101032.09;5083007;28;20215;-72
2023/04/06 10:56:16;;;;;;;6.77;5.90;;;;;;;13.10;32.99;101032.09;5076273;28;20259;-70
2023/04/06 10:58:47;;;;;;;7.53;6.20;;;;;;;13.14;32.76;101030.94;5082096;28;20446;-71
2023/04/06 11:01:16;;;;;;;8.53;6.03;;;;;;;13.14;32.83;101029.13;5079205;28;20201;-70
2023/04/06 11:03:46;;;;;;;6.73;6.13;;;;;;;13.14;33.25;101023.78;5082906;28;20215;-69
2023/04/06 11:06:19;;;;;;;7.57;6.57;;;;;;;13.18;33.26;101030.66;5080277;28;20640;-69
2023/04/06 11:08:45;;;;;;;8.50;6.37;;;;;;;13.15;32.97;101020.19;5077671;28;20232;-70
2023/04/06 11:11:15;;;;;;;6.97;6.20;;;;;;;13.12;33.06;101023.03;5082593;28;20680;-70
2023/04/06 11:13:43;;;;;;;7.97;6.50;;;;;;;13.08;33.32;101020.66;5083181;28;20211;-70
2023/04/06 11:16:18;;;;;;;7.67;6.20;;;;;;;13.06;33.24;101019.94;5081331;28;20590;-69
2023/04/06 11:18:49;;;;;;;8.67;6.60;;;;;;;13.06;33.29;101026.13;5075531;28;20642;-69
2023/04/06 11:21:16;;;;;;;7.43;6.60;;;;;;;13.04;32.78;101021.84;5078959;28;20204;-71
2023/04/06 11:23:43;;;;;;;7.27;6.57;;;;;;;13.01;32.59;101014.88;5080413;28;20235;-69